Time;durP1;ratioP1;P1;durP2;ratioP2;P2;SDS_P1;SDS_P2;PMS_P1;PMS_P2;Temp;Humidity;BMP_temperature;BMP_pressure;BME280_temperature;BME280_humidity;BME280_pressure;Samples;Min_cycle;Max_cycle;Signal;HPM_P1;HPM_P2
2022/01/18 00:01:30;;;;;;;1.80;0.82;;;;;;;0.04;78.00;97720.95;1774038;80;21149;-41
2022/01/18 00:03:57;;;;;;;1.65;0.93;;;;;;;0.06;78.01;97721.37;1773123;80;21358;-41
2022/01/18 00:06:24;;;;;;;2.77;0.85;;;;;;;0.07;77.90;97720.83;1773796;80;20933;-41
2022/01/18 00:08:51;;;;;;;0.60;0.55;;;;;;;0.06;77.89;97728.59;1773805;80;21021;-41
2022/01/18 00:11:20;;;;;;;1.15;0.70;;;;;;;0.07;77.84;97737.59;1773958;80;21005;-41
2022/01/18 00:13:56;;;;;;;1.27;0.90;;;;;;;0.03;78.11;97735.92;1774053;80;21148;-41
2022/01/18 00:18:52;;;;;;;0.90;0.62;;;;;;;-0.01;78.51;97751.80;1773975;80;21495;-41
2022/01/18 00:21:31;;;;;;;2.20;1.02;;;;;;;-0.04;78.56;97760.42;1774146;80;20989;-41
2022/01/18 00:23:57;;;;;;;1.05;0.80;;;;;;;-0.08;78.71;97773.63;1772915;80;21021;-41
2022/01/18 00:26:21;;;;;;;0.93;0.80;;;;;;;-0.15;78.74;97794.70;1773274;80;21827;-40
2022/01/18 00:28:53;;;;;;;1.87;0.70;;;;;;;-0.17;78.67;97798.23;1773767;80;20965;-41
2022/01/18 00:34:07;;;;;;;1.70;0.80;;;;;;;-0.29;77.16;97814.14;1774108;80;20969;-41
2022/01/18 00:36:40;;;;;;;2.70;1.17;;;;;;;-0.38;76.34;97816.09;1773326;80;21538;-41
2022/01/18 00:39:07;;;;;;;1.87;0.93;;;;;;;-0.46;76.17;97829.71;1775130;80;21907;-41
2022/01/18 00:41:34;;;;;;;4.37;1.10;;;;;;;-0.50;75.97;97841.33;1782313;80;20894;-41
2022/01/18 00:44:01;;;;;;;12.98;1.07;;;;;;;-0.50;75.30;97855.97;1782396;80;21519;-40
2022/01/18 00:46:27;;;;;;;4.15;1.10;;;;;;;-0.50;74.64;97871.95;1782334;80;21316;-40
2022/01/18 00:49:01;;;;;;;1.47;0.75;;;;;;;-0.57;74.66;97869.00;1782602;80;21080;-41
2022/01/18 00:51:22;;;;;;;2.08;0.90;;;;;;;-0.72;74.10;97882.86;1780617;80;21856;-40
2022/01/18 00:53:49;;;;;;;2.75;1.12;;;;;;;-0.84;74.38;97887.55;1782354;80;20953;-40
2022/01/18 00:56:21;;;;;;;1.77;1.20;;;;;;;-0.89;73.51;97903.69;1782350;80;20953;-40
2022/01/18 00:58:47;;;;;;;4.85;0.90;;;;;;;-0.92;73.22;97918.97;1780737;80;21012;-41
2022/01/18 01:01:14;;;;;;;7.15;1.10;;;;;;;-0.97;72.52;97919.15;1782579;80;21020;-41
2022/01/18 01:03:41;;;;;;;3.85;0.90;;;;;;;-0.98;72.29;97937.53;1782598;80;21788;-40
2022/01/18 01:06:08;;;;;;;3.22;1.00;;;;;;;-0.99;71.44;97942.61;1782370;80;21536;-40
2022/01/18 01:08:35;;;;;;;4.45;1.00;;;;;;;-1.02;71.86;97961.33;1782175;80;20993;-40
2022/01/18 01:11:06;;;;;;;5.12;0.75;;;;;;;-1.06;72.08;97967.57;1782322;80;20980;-40
2022/01/18 01:13:33;;;;;;;5.67;1.05;;;;;;;-1.09;72.54;97985.50;1781657;80;21008;-40
2022/01/18 01:16:37;;;;;;;4.22;1.10;;;;;;;-1.16;72.29;97983.89;1782294;80;21124;-40
2022/01/18 01:32:49;;;;;;;3.25;0.90;;;;;;;-1.27;68.93;98030.50;1782588;80;20965;-40
2022/01/18 01:34:45;;;;;;;2.20;1.00;;;;;;;-1.26;68.53;98040.05;1778122;80;21024;-40
2022/01/18 01:41:42;;;;;;;4.28;1.00;;;;;;;-1.24;67.70;98053.80;1781989;80;20993;-40
2022/01/18 01:42:43;;;;;;;3.62;0.80;;;;;;;-1.34;65.78;98055.68;1773943;80;21156;-40
2022/01/18 01:44:47;;;;;;;2.37;0.80;;;;;;;-1.35;65.18;98078.03;1774193;80;20965;-40
2022/01/18 01:47:19;;;;;;;1.42;0.85;;;;;;;-1.37;64.28;98082.11;1773971;80;20969;-40
2022/01/18 01:49:48;;;;;;;5.17;1.00;;;;;;;-1.37;64.30;98081.57;1774125;80;20961;-40
2022/01/18 01:52:14;;;;;;;4.17;1.00;;;;;;;-1.35;63.93;98087.34;1774047;80;21069;-40
2022/01/18 01:54:41;;;;;;;1.95;0.90;;;;;;;-1.34;64.35;98079.60;1773946;80;21152;-41
2022/01/18 01:57:08;;;;;;;1.80;0.80;;;;;;;-1.32;63.57;98094.70;1773849;80;20938;-40
2022/01/18 01:59:35;;;;;;;1.07;0.70;;;;;;;-1.31;63.57;98102.14;1773861;80;21040;-41
2022/01/18 02:02:01;;;;;;;6.40;0.98;;;;;;;-1.32;63.60;98105.34;1773965;80;21092;-41
2022/01/18 02:04:28;;;;;;;1.98;0.85;;;;;;;-1.35;63.86;98113.92;1773827;80;21036;-40
2022/01/18 02:06:54;;;;;;;8.90;1.02;;;;;;;-1.39;64.55;98124.95;1774000;80;21831;-40
2022/01/18 02:09:21;;;;;;;3.40;1.22;;;;;;;-1.45;65.21;98138.14;1773812;80;21001;-40
2022/01/18 02:11:49;;;;;;;2.77;1.17;;;;;;;-1.50;66.59;98141.52;1752083;80;21087;-40
2022/01/18 02:14:20;;;;;;;3.65;1.15;;;;;;;-1.58;67.03;98158.99;1774316;80;21263;-40
2022/01/18 02:22:16;;;;;;;4.05;1.00;;;;;;;-1.85;68.54;98164.55;1676923;85;21105;-40
2022/01/18 02:24:43;;;;;;;3.42;0.90;;;;;;;-1.88;67.91;98178.42;1722415;80;20988;-40
2022/01/18 02:27:09;;;;;;;4.40;0.88;;;;;;;-1.92;66.56;98184.90;1773980;80;21001;-40
2022/01/18 02:29:36;;;;;;;1.77;0.90;;;;;;;-1.95;65.93;98182.08;1773967;80;21093;-41
2022/01/18 02:32:04;;;;;;;1.32;0.80;;;;;;;-1.98;63.96;98190.64;1773867;80;21112;-40
2022/01/18 02:34:31;;;;;;;2.10;0.80;;;;;;;-2.01;61.82;98197.36;1774193;80;20961;-40
2022/01/18 02:36:58;;;;;;;2.17;0.80;;;;;;;-2.02;61.06;98191.80;1773894;80;21601;-40
2022/01/18 02:39:27;;;;;;;1.72;0.78;;;;;;;-2.02;60.18;98217.58;1774289;80;21511;-40
2022/01/18 02:42:00;;;;;;;0.50;0.50;;;;;;;-2.03;59.08;98203.51;1781284;80;21028;-40
2022/01/18 02:44:28;;;;;;;4.90;0.90;;;;;;;-1.98;58.80;98217.98;1780818;80;21784;-40
2022/01/18 02:46:55;;;;;;;2.85;0.80;;;;;;;-1.96;58.11;98233.08;1782223;80;20973;-40
2022/01/18 02:49:21;;;;;;;3.60;0.85;;;;;;;-1.91;58.51;98232.95;1782049;80;21005;-40
2022/01/18 02:51:48;;;;;;;1.32;0.72;;;;;;;-1.93;58.48;98245.74;1782079;80;21060;-40
2022/01/18 02:54:17;;;;;;;1.55;0.65;;;;;;;-1.93;59.03;98249.72;1781846;80;21041;-40
2022/01/18 02:57:00;;;;;;;0.82;0.80;;;;;;;-1.96;59.07;98266.28;1782195;80;21040;-40
2022/01/18 02:59:36;;;;;;;3.35;1.22;;;;;;;-2.07;60.17;98270.27;1781931;80;21075;-40
2022/01/18 03:04:47;;;;;;;3.87;1.00;;;;;;;-2.15;61.96;98277.64;1782384;80;20969;-40
2022/01/18 03:07:15;;;;;;;7.72;0.90;;;;;;;-2.24;62.47;98265.64;1782158;80;21562;-40
2022/01/18 03:09:41;;;;;;;3.20;0.90;;;;;;;-2.29;62.44;98273.73;1785575;80;21823;-40
2022/01/18 03:12:10;;;;;;;5.05;0.85;;;;;;;-2.33;62.42;98279.41;1785171;80;21503;-40
2022/01/18 03:14:38;;;;;;;1.65;0.80;;;;;;;-2.37;62.14;98281.06;1785362;80;21059;-40
2022/01/18 03:17:06;;;;;;;3.15;0.90;;;;;;;-2.32;61.67;98276.97;1785304;80;21487;-40
2022/01/18 03:19:33;;;;;;;2.05;0.70;;;;;;;-2.35;60.48;98273.60;1785424;80;21538;-40
2022/01/18 03:22:00;;;;;;;6.22;0.90;;;;;;;-2.34;60.00;98281.81;1782660;80;21141;-40
2022/01/18 03:29:38;;;;;;;3.02;0.90;;;;;;;-2.34;58.90;98291.64;1782245;80;21000;-40
2022/01/18 03:32:06;;;;;;;1.50;0.90;;;;;;;-2.31;59.19;98290.48;1782421;80;21020;-40
2022/01/18 03:34:34;;;;;;;1.52;0.72;;;;;;;-2.24;58.70;98292.20;1782455;80;21826;-40
2022/01/18 03:37:00;;;;;;;0.80;0.68;;;;;;;-2.23;58.30;98283.12;1782000;80;20978;-40
2022/01/18 03:39:26;;;;;;;3.35;1.35;;;;;;;-2.23;57.65;98276.48;1777118;80;21579;-40
2022/01/18 03:41:55;;;;;;;1.37;0.82;;;;;;;-2.25;57.35;98295.92;1782083;80;21510;-40
2022/01/18 03:44:25;;;;;;;3.00;0.70;;;;;;;-2.28;57.49;98303.72;1782524;80;20977;-40
2022/01/18 03:46:53;;;;;;;2.10;0.80;;;;;;;-2.31;57.45;98306.41;1782177;80;21047;-40
2022/01/18 03:49:23;;;;;;;5.22;0.80;;;;;;;-2.31;57.37;98317.57;1782145;80;21008;-40
2022/01/18 03:51:49;;;;;;;2.85;1.15;;;;;;;-2.26;57.56;98324.87;1782380;80;20933;-40
2022/01/18 03:54:22;;;;;;;2.42;0.78;;;;;;;-2.23;57.24;98348.73;1782457;80;21005;-40
2022/01/18 03:56:44;;;;;;;1.62;0.75;;;;;;;-2.24;57.36;98344.50;1776757;80;21017;-40
2022/01/18 03:59:11;;;;;;;1.20;0.70;;;;;;;-2.24;57.35;98337.33;1769478;81;21105;-40
2022/01/18 04:01:37;;;;;;;2.67;0.72;;;;;;;-2.26;57.05;98334.71;1769067;81;20890;-40
2022/01/18 04:04:05;;;;;;;1.82;0.82;;;;;;;-2.21;57.32;98353.18;1769563;81;20937;-40
2022/01/18 04:06:33;;;;;;;2.47;0.90;;;;;;;-2.18;57.46;98362.43;1769315;81;21536;-40
2022/01/18 04:08:59;;;;;;;2.45;0.90;;;;;;;-2.15;57.27;98363.14;1769627;80;21558;-40
2022/01/18 04:11:27;;;;;;;1.32;0.70;;;;;;;-2.14;57.12;98378.78;1769122;81;21144;-40
2022/01/18 04:13:54;;;;;;;2.47;0.70;;;;;;;-2.13;56.42;98371.61;1769324;81;21791;-40
2022/01/18 04:16:21;;;;;;;1.47;0.70;;;;;;;-2.11;55.88;98382.70;1769241;81;21566;-40
2022/01/18 04:18:56;;;;;;;3.08;0.80;;;;;;;-2.16;56.11;98385.47;1769187;81;21022;-40
2022/01/18 04:29:14;;;;;;;2.00;1.10;;;;;;;-2.13;56.12;98414.09;1782100;80;20965;-40
2022/01/18 04:31:40;;;;;;;3.60;1.07;;;;;;;-2.16;55.57;98407.49;1782012;80;21005;-40
2022/01/18 04:34:07;;;;;;;2.45;0.80;;;;;;;-2.15;56.47;98422.88;1782131;80;21607;-40
2022/01/18 04:36:33;;;;;;;1.55;0.90;;;;;;;-2.11;56.37;98425.18;1715138;83;21555;-40
2022/01/18 04:39:00;;;;;;;2.45;0.82;;;;;;;-2.14;56.36;98444.38;1782341;80;20997;-40
2022/01/18 04:41:30;;;;;;;2.10;0.80;;;;;;;-2.16;56.26;98442.55;1769970;80;21009;-40
2022/01/18 04:49:14;;;;;;;1.17;0.72;;;;;;;-2.29;57.86;98480.78;1762671;81;21134;-40
2022/01/18 04:51:42;;;;;;;4.53;0.80;;;;;;;-2.33;58.46;98481.67;1687598;85;21470;-40
2022/01/18 04:54:10;;;;;;;1.10;0.80;;;;;;;-2.43;61.37;98481.33;1762827;81;20939;-40
2022/01/18 04:59:07;;;;;;;2.72;0.80;;;;;;;-2.54;61.54;98494.55;1763048;81;21022;-40
2022/01/18 05:01:34;;;;;;;;;;;;;;;-2.57;61.24;98495.14;1765510;81;21197;-40
2022/01/18 05:04:01;;;;;;;3.60;1.00;;;;;;;-2.58;61.19;98494.11;1763101;81;20187;-40
2022/01/18 05:06:28;;;;;;;3.17;1.00;;;;;;;-2.66;60.81;98492.91;1762844;81;21021;-40
2022/01/18 05:08:56;;;;;;;1.52;0.82;;;;;;;-2.64;60.50;98505.34;1762829;81;21030;-40
2022/01/18 05:11:25;;;;;;;3.00;0.93;;;;;;;-2.62;59.79;98515.67;1687675;85;21650;-40
2022/01/18 05:14:18;;;;;;;1.10;0.88;;;;;;;-2.64;59.68;98518.61;1762966;80;21139;-40
2022/01/18 05:19:19;;;;;;;3.60;1.67;;;;;;;-2.55;59.88;98518.17;1763084;81;20962;-41
2022/01/18 05:24:26;;;;;;;2.15;0.80;;;;;;;-2.43;59.47;98534.41;1762848;81;21026;-41
2022/01/18 05:26:54;;;;;;;1.52;0.90;;;;;;;-2.40;58.52;98529.83;1762804;81;21075;-41
2022/01/18 05:29:21;;;;;;;3.92;1.20;;;;;;;-2.44;56.84;98525.41;1687945;85;21022;-41
2022/01/18 05:31:47;;;;;;;3.58;0.80;;;;;;;-2.44;57.79;98534.16;1762905;81;21511;-41
2022/01/18 05:34:14;;;;;;;1.50;1.00;;;;;;;-2.39;57.96;98530.08;1763097;81;21508;-41
2022/01/18 05:36:40;;;;;;;2.33;1.22;;;;;;;-2.33;57.28;98537.41;1687637;85;21040;-41
2022/01/18 05:39:12;;;;;;;2.80;1.45;;;;;;;-2.34;57.60;98544.59;1762786;80;21155;-41
2022/01/18 05:41:38;;;;;;;2.15;0.90;;;;;;;-2.30;57.28;98541.59;1687412;83;21015;-41
2022/01/18 05:44:05;;;;;;;1.60;0.80;;;;;;;-2.33;57.35;98542.19;1762979;80;21622;-41
2022/01/18 05:46:31;;;;;;;2.70;0.98;;;;;;;-2.30;57.66;98553.53;1762955;80;21009;-42
2022/01/18 05:49:01;;;;;;;2.05;1.10;;;;;;;-2.33;56.89;98546.70;1762843;81;20947;-41
2022/01/18 05:51:28;;;;;;;2.15;0.90;;;;;;;-2.32;57.15;98557.00;1762822;81;22018;-41
2022/01/18 05:53:55;;;;;;;3.33;1.00;;;;;;;-2.35;57.77;98572.20;1763247;81;21009;-41
2022/01/18 05:56:22;;;;;;;2.00;0.88;;;;;;;-2.34;57.39;98584.41;1762802;80;21002;-41
2022/01/18 05:58:49;;;;;;;4.75;1.37;;;;;;;-2.31;56.78;98575.05;1762699;81;20970;-41
2022/01/18 06:01:32;;;;;;;1.82;0.90;;;;;;;-2.34;56.98;98588.38;1762799;81;21007;-42
2022/01/18 06:09:09;;;;;;;1.32;0.90;;;;;;;-2.32;55.98;98593.38;1762951;81;21071;-42
2022/01/18 06:11:36;;;;;;;2.72;1.05;;;;;;;-2.35;55.76;98608.04;1762739;81;21097;-42
2022/01/18 06:14:03;;;;;;;5.15;1.00;;;;;;;-2.32;55.89;98611.96;1762982;81;21544;-41
2022/01/18 06:16:29;;;;;;;2.12;1.00;;;;;;;-2.30;55.61;98620.43;1762828;81;21089;-41
2022/01/18 06:18:56;;;;;;;4.08;1.37;;;;;;;-2.29;55.91;98622.80;1763028;81;21044;-41
2022/01/18 06:21:23;;;;;;;1.67;0.90;;;;;;;-2.27;55.38;98627.80;1759878;80;20954;-41
2022/01/18 06:23:49;;;;;;;4.25;1.12;;;;;;;-2.27;55.58;98622.48;1757121;81;21019;-42
2022/01/18 06:26:16;;;;;;;6.85;1.07;;;;;;;-2.25;54.99;98613.16;1757159;81;21029;-41
2022/01/18 06:28:44;;;;;;;1.70;0.95;;;;;;;-2.25;54.94;98625.66;1757416;81;21123;-41
2022/01/18 06:31:10;;;;;;;1.87;0.90;;;;;;;-2.33;54.97;98635.09;1757175;81;20924;-41
2022/01/18 06:33:37;;;;;;;0.95;0.75;;;;;;;-2.40;54.95;98638.66;1757356;81;20974;-41
2022/01/18 06:36:05;;;;;;;1.02;0.80;;;;;;;-2.48;54.76;98659.23;1757101;81;21058;-41
2022/01/18 06:38:31;;;;;;;3.22;0.90;;;;;;;-2.50;55.21;98660.59;1757408;81;21045;-41
2022/01/18 06:40:59;;;;;;;2.25;0.95;;;;;;;-2.54;55.64;98672.88;1757799;81;21986;-42
2022/01/18 06:43:27;;;;;;;2.70;0.90;;;;;;;-2.57;55.68;98662.31;1762464;81;20998;-41
2022/01/18 06:45:54;;;;;;;1.50;1.00;;;;;;;-2.55;55.80;98668.63;1762528;81;20982;-41
2022/01/18 06:48:20;;;;;;;1.40;1.07;;;;;;;-2.51;56.29;98671.74;1762607;81;21511;-41
2022/01/18 06:50:47;;;;;;;3.10;0.90;;;;;;;-2.46;55.59;98682.81;1762789;81;21037;-41
2022/01/18 06:53:13;;;;;;;1.40;0.90;;;;;;;-2.41;55.36;98683.52;1762576;81;21115;-41
2022/01/18 06:55:40;;;;;;;1.47;0.90;;;;;;;-2.40;55.33;98689.08;1762283;81;20938;-41
2022/01/18 06:58:07;;;;;;;1.07;0.78;;;;;;;-2.35;55.30;98683.69;1762435;81;20970;-41
2022/01/18 07:00:34;;;;;;;1.30;1.12;;;;;;;-2.32;55.25;98692.92;1762394;81;21042;-41
2022/01/18 07:03:00;;;;;;;1.17;0.70;;;;;;;-2.31;55.06;98690.52;1762308;81;21009;-41
2022/01/18 07:05:27;;;;;;;2.58;1.07;;;;;;;-2.26;55.47;98706.37;1762421;81;21158;-41
2022/01/18 07:07:54;;;;;;;1.52;1.00;;;;;;;-2.22;55.34;98709.48;1762430;81;20982;-41
2022/01/18 07:10:25;;;;;;;1.12;1.00;;;;;;;-2.14;55.14;98700.61;1757543;81;20974;-41
2022/01/18 07:12:55;;;;;;;1.67;0.72;;;;;;;-2.09;54.74;98720.44;1685250;85;21540;-41
2022/01/18 07:15:19;;;;;;;1.12;0.93;;;;;;;-2.04;54.26;98705.20;1756965;81;21017;-42
2022/01/18 07:17:46;;;;;;;3.40;1.02;;;;;;;-2.00;54.11;98705.40;1762529;81;21119;-41
2022/01/18 07:20:13;;;;;;;1.52;0.98;;;;;;;-1.97;54.24;98714.89;1762973;80;20958;-41
2022/01/18 07:22:42;;;;;;;2.25;0.90;;;;;;;-1.94;53.32;98711.66;1782024;80;21491;-42
2022/01/18 07:25:15;;;;;;;2.12;1.00;;;;;;;-1.93;53.52;98717.20;1781968;80;21049;-41
2022/01/18 07:27:41;;;;;;;2.90;1.10;;;;;;;-1.89;54.00;98720.08;1782163;80;21588;-41
2022/01/18 07:30:11;;;;;;;1.92;0.90;;;;;;;-1.82;54.27;98728.44;1782154;80;21131;-42
2022/01/18 07:32:38;;;;;;;2.33;1.00;;;;;;;-1.76;53.50;98730.72;1782095;80;20973;-42
2022/01/18 07:35:08;;;;;;;2.08;0.93;;;;;;;-1.74;52.94;98727.75;1782024;79;21017;-42
2022/01/18 07:37:35;;;;;;;2.72;1.00;;;;;;;-1.76;52.60;98732.59;1782096;80;21519;-41
2022/01/18 07:40:01;;;;;;;1.95;1.05;;;;;;;-1.75;52.64;98747.45;1782051;80;21076;-41
2022/01/18 07:42:28;;;;;;;2.30;1.10;;;;;;;-1.77;52.59;98750.39;1769241;80;21148;-41
2022/01/18 07:44:55;;;;;;;3.25;1.07;;;;;;;-2.13;51.53;98694.22;1762747;81;21068;-41
2022/01/18 07:47:21;;;;;;;1.75;0.90;;;;;;;-1.79;51.68;98772.47;1757260;81;21476;-41
2022/01/18 07:49:48;;;;;;;1.92;1.20;;;;;;;-1.78;51.24;98763.97;1762748;81;21050;-41
2022/01/18 07:52:18;;;;;;;3.67;1.00;;;;;;;-1.77;51.23;98745.63;1762640;81;21030;-42
2022/01/18 07:54:45;;;;;;;1.85;0.90;;;;;;;-1.68;50.46;98777.07;1687722;85;21974;-41
2022/01/18 07:57:14;;;;;;;3.70;0.90;;;;;;;-1.63;50.98;98769.55;1762648;80;21528;-41
2022/01/18 07:59:41;;;;;;;1.35;0.90;;;;;;;-1.56;50.15;98760.66;1762763;81;20915;-41
2022/01/18 08:02:08;;;;;;;1.12;0.80;;;;;;;-1.50;49.92;98768.22;1762668;81;21089;-41
2022/01/18 08:04:34;;;;;;;5.00;1.60;;;;;;;-1.46;49.62;98774.55;1762776;81;21042;-41
2022/01/18 08:07:01;;;;;;;0.95;0.80;;;;;;;-1.39;49.53;98760.84;1762650;81;21116;-42
2022/01/18 08:09:28;;;;;;;1.77;0.93;;;;;;;-1.36;48.86;98767.72;1762615;81;21075;-41
2022/01/18 08:11:55;;;;;;;2.87;1.20;;;;;;;-1.29;49.22;98767.84;1762798;81;21038;-41
2022/01/18 08:14:22;;;;;;;2.17;1.20;;;;;;;-1.18;49.22;98790.50;1687635;85;21496;-41
2022/01/18 08:17:10;;;;;;;7.05;1.27;;;;;;;-1.04;49.50;98792.61;1762585;81;21002;-42
2022/01/18 08:19:19;;;;;;;3.95;0.93;;;;;;;-0.87;49.94;98806.87;1678859;84;21568;-42
2022/01/18 08:21:46;;;;;;;2.92;1.00;;;;;;;-1.11;49.85;98760.28;1758805;80;21564;-42
2022/01/18 08:24:12;;;;;;;1.27;0.82;;;;;;;-0.71;49.16;98824.64;1757054;81;21520;-44
2022/01/18 08:26:39;;;;;;;2.58;1.20;;;;;;;-0.67;50.12;98829.61;1756998;81;21556;-41
2022/01/18 08:29:06;;;;;;;1.37;0.93;;;;;;;-0.63;49.31;98822.59;1757037;81;21002;-42
2022/01/18 08:31:33;;;;;;;5.35;1.35;;;;;;;-0.61;48.87;98839.61;1757006;81;21968;-42
2022/01/18 08:34:00;;;;;;;2.62;1.20;;;;;;;-0.60;48.77;98830.01;1757020;81;21030;-42
2022/01/18 08:36:26;;;;;;;4.78;1.32;;;;;;;-0.59;49.15;98849.44;1757078;81;21007;-42
2022/01/18 08:38:53;;;;;;;1.92;1.00;;;;;;;-0.58;48.99;98845.13;1757095;81;20966;-42
2022/01/18 08:41:21;;;;;;;2.65;1.00;;;;;;;-0.50;49.11;98851.09;1757194;81;21532;-42
2022/01/18 08:43:48;;;;;;;2.72;1.20;;;;;;;-0.46;49.44;98861.38;1762421;81;21110;-41
2022/01/18 08:46:15;;;;;;;3.17;1.00;;;;;;;-0.44;49.20;98846.45;1762653;81;21516;-41
2022/01/18 08:48:43;;;;;;;2.52;0.90;;;;;;;-0.45;48.93;98854.19;1762263;81;21072;-42
2022/01/18 08:51:09;;;;;;;5.30;1.10;;;;;;;-0.47;49.33;98857.14;1762705;81;21556;-42
2022/01/18 08:53:37;;;;;;;2.60;1.35;;;;;;;-0.45;49.81;98872.28;1762347;81;20990;-42
2022/01/18 08:57:33;;;;;;;8.03;1.02;;;;;;;-0.41;48.65;98867.69;1796942;79;22811;-40
2022/01/18 09:00:00;;;;;;;11.50;1.40;;;;;;;-0.54;48.62;98878.08;1757156;80;21483;-40
2022/01/18 09:02:27;;;;;;;3.65;0.80;;;;;;;-0.57;51.93;98875.98;1756977;81;21937;-40
2022/01/18 09:04:53;;;;;;;1.92;1.20;;;;;;;-0.57;52.22;98880.52;1756976;81;21440;-40
2022/01/18 09:07:22;;;;;;;2.52;1.35;;;;;;;-0.50;50.40;98879.05;1768426;80;20952;-40
2022/01/18 09:09:54;;;;;;;5.72;1.40;;;;;;;-0.31;49.88;98880.78;1777860;80;20949;-40
2022/01/18 09:12:18;;;;;;;3.35;1.35;;;;;;;-0.13;48.15;98904.61;1777594;80;20981;-40
2022/01/18 09:14:45;;;;;;;2.67;1.12;;;;;;;0.01;47.41;98895.23;1777817;80;21213;-40
2022/01/18 09:17:12;;;;;;;2.02;1.37;;;;;;;0.06;47.20;98903.66;1777790;80;20958;-40
2022/01/18 09:19:38;;;;;;;3.72;0.98;;;;;;;0.22;47.69;98910.23;1774789;80;20976;-41
2022/01/18 09:22:05;;;;;;;2.52;1.42;;;;;;;0.29;46.29;98894.05;1756904;81;21096;-40
2022/01/18 09:24:32;;;;;;;2.52;1.37;;;;;;;0.23;46.16;98921.94;1756845;81;21072;-41
2022/01/18 09:27:00;;;;;;;2.37;1.30;;;;;;;0.28;46.88;98921.02;1757112;81;21028;-41
2022/01/18 09:29:27;;;;;;;1.50;0.88;;;;;;;0.37;46.00;98921.33;1756847;81;21079;-41
2022/01/18 09:31:54;;;;;;;5.78;1.10;;;;;;;0.42;45.69;98928.42;1757102;81;21009;-40
2022/01/18 09:34:20;;;;;;;4.58;1.57;;;;;;;0.48;45.08;98914.42;1756920;81;21508;-40
2022/01/18 09:36:47;;;;;;;5.22;1.55;;;;;;;0.48;45.10;98911.76;1756975;81;21044;-40
2022/01/18 09:39:14;;;;;;;2.20;1.47;;;;;;;0.46;45.39;98916.59;1757015;81;21123;-40
2022/01/18 09:41:43;;;;;;;1.90;1.20;;;;;;;0.46;46.01;98921.92;1756777;81;21028;-40
2022/01/18 09:44:09;;;;;;;2.08;1.10;;;;;;;0.50;45.41;98923.69;1695385;83;20940;-40
2022/01/18 09:46:36;;;;;;;3.22;1.32;;;;;;;0.59;45.33;98929.06;1723706;83;20992;-40
2022/01/18 09:49:05;;;;;;;4.72;1.80;;;;;;;0.66;44.38;98927.56;1723349;83;21072;-41
2022/01/18 09:51:32;;;;;;;1.60;1.10;;;;;;;0.75;44.21;98935.61;1695646;83;21185;-41
2022/01/18 09:53:59;;;;;;;4.60;1.07;;;;;;;0.82;44.61;98941.31;1723344;83;21015;-41
2022/01/18 09:56:26;;;;;;;3.45;1.00;;;;;;;0.81;44.52;98938.41;1720032;83;20973;-41
2022/01/18 09:58:53;;;;;;;1.87;0.90;;;;;;;0.88;44.70;98948.08;1715664;83;20992;-40
2022/01/18 10:01:19;;;;;;;1.62;1.02;;;;;;;0.85;44.23;98948.70;1716069;83;21005;-40
2022/01/18 10:03:47;;;;;;;2.62;1.42;;;;;;;0.88;44.60;98944.08;1715657;83;21594;-40
2022/01/18 10:06:14;;;;;;;6.17;1.60;;;;;;;0.86;44.42;98951.62;1715646;83;20933;-40
2022/01/18 10:08:44;;;;;;;4.95;1.10;;;;;;;0.78;44.56;98956.34;1684934;83;21091;-40
2022/01/18 10:11:16;;;;;;;3.33;1.27;;;;;;;0.68;45.76;98962.70;1706552;83;20993;-40
2022/01/18 10:13:49;;;;;;;3.75;1.02;;;;;;;0.55;46.24;98952.90;1706800;84;21033;-40
2022/01/18 10:16:21;;;;;;;4.00;1.30;;;;;;;0.43;46.05;98958.00;1706775;84;21129;-40
2022/01/18 10:18:55;;;;;;;2.80;1.27;;;;;;;0.38;46.21;98958.91;1706854;84;21096;-41
2022/01/18 10:21:39;;;;;;;6.12;1.10;;;;;;;0.35;46.35;98962.70;1690230;83;21532;-40
2022/01/18 10:24:23;;;;;;;3.70;1.32;;;;;;;0.36;46.12;98960.28;1721379;82;21218;-40
2022/01/18 10:26:52;;;;;;;3.72;1.20;;;;;;;0.37;46.09;98965.87;1721439;83;21045;-40
2022/01/18 10:29:26;;;;;;;3.08;1.12;;;;;;;0.33;45.72;98980.89;1721343;83;21567;-40
2022/01/18 10:37:17;;;;;;;3.72;1.50;;;;;;;0.36;45.72;98969.08;1721357;83;21088;-41
2022/01/18 10:39:55;;;;;;;2.65;1.20;;;;;;;0.44;45.53;98973.68;1721227;82;21002;-41
2022/01/18 10:42:39;;;;;;;1.35;0.85;;;;;;;0.57;45.61;98973.40;1720008;83;21101;-40
2022/01/18 10:45:13;;;;;;;3.08;1.00;;;;;;;0.66;43.39;98963.58;1720816;82;21080;-41
2022/01/18 10:48:03;;;;;;;1.95;1.15;;;;;;;0.65;43.36;98980.66;1721380;82;21552;-41
2022/01/18 10:50:38;;;;;;;3.12;1.27;;;;;;;0.63;43.71;98973.50;1721252;83;21020;-40
2022/01/18 10:53:18;;;;;;;2.52;1.20;;;;;;;0.68;44.27;98981.92;1721476;82;21049;-41
2022/01/18 10:55:49;;;;;;;3.50;1.20;;;;;;;0.80;44.64;98995.52;1721111;83;21131;-41
2022/01/18 10:58:20;;;;;;;3.42;1.20;;;;;;;0.89;44.23;98989.69;1712156;83;21025;-40
2022/01/18 11:00:48;;;;;;;7.95;1.85;;;;;;;0.99;44.45;99001.45;1713589;82;21596;-40
2022/01/18 11:03:15;;;;;;;4.37;1.22;;;;;;;1.17;44.96;99000.45;1713794;83;20998;-41
2022/01/18 11:05:46;;;;;;;4.00;1.20;;;;;;;1.43;44.58;99001.13;1713554;82;21547;-40
2022/01/18 11:08:16;;;;;;;3.25;1.12;;;;;;;1.63;43.94;99009.94;1713598;83;21138;-41
2022/01/18 11:10:46;;;;;;;2.70;1.10;;;;;;;1.75;42.95;99015.47;1713530;83;26514;-41
2022/01/18 11:13:21;;;;;;;3.75;1.12;;;;;;;1.92;43.61;99028.91;1713638;82;21013;-40
2022/01/18 11:15:45;;;;;;;3.12;0.93;;;;;;;2.06;42.77;99048.28;1713417;82;21353;-41
2022/01/18 11:18:17;;;;;;;1.02;0.88;;;;;;;2.07;41.96;99044.52;1713906;82;21041;-40
2022/01/18 11:20:46;;;;;;;3.85;1.20;;;;;;;2.03;42.94;99044.88;1708280;82;21146;-40
2022/01/18 11:23:13;;;;;;;2.55;1.00;;;;;;;1.99;43.24;99051.95;1713797;83;20998;-41
2022/01/18 11:25:39;;;;;;;2.58;1.45;;;;;;;1.95;43.36;99055.55;1713622;82;21539;-41
2022/01/18 11:28:08;;;;;;;3.72;1.30;;;;;;;1.84;42.90;99040.34;1713722;82;21049;-41
2022/01/18 11:30:39;;;;;;;2.83;1.05;;;;;;;1.77;43.48;99045.36;1713611;83;21088;-41
2022/01/18 11:33:08;;;;;;;1.98;1.10;;;;;;;1.69;43.23;99061.58;1714039;82;21099;-41
2022/01/18 11:35:54;;;;;;;2.37;1.20;;;;;;;1.59;44.08;99060.55;1713865;83;20962;-41
2022/01/18 11:38:50;;;;;;;1.70;1.10;;;;;;;1.49;43.88;99061.34;1713727;83;21538;-41
2022/01/18 11:41:26;;;;;;;2.83;1.10;;;;;;;1.24;44.63;99068.91;1703635;83;21113;-40
2022/01/18 11:43:55;;;;;;;2.92;0.93;;;;;;;1.08;44.79;99061.02;1713949;83;21016;-41
2022/01/18 11:46:38;;;;;;;5.12;1.27;;;;;;;0.91;44.67;99072.92;1713729;83;21106;-40
2022/01/18 11:49:09;;;;;;;2.08;1.35;;;;;;;0.80;45.27;99078.23;1714067;82;21013;-40
2022/01/18 11:51:49;;;;;;;3.80;1.10;;;;;;;0.67;45.55;99076.41;1713564;83;20973;-40
2022/01/18 11:54:37;;;;;;;2.22;1.00;;;;;;;0.60;45.78;99089.36;1713914;83;21005;-40
2022/01/18 11:57:27;;;;;;;2.00;1.10;;;;;;;0.50;45.90;99090.36;1713325;82;21018;-41
2022/01/18 12:00:00;;;;;;;2.52;1.22;;;;;;;0.39;45.86;99084.45;1713874;83;21157;-41
2022/01/18 12:02:40;;;;;;;2.12;1.00;;;;;;;0.25;46.30;99113.55;1713617;82;21505;-40
2022/01/18 12:05:19;;;;;;;1.92;1.27;;;;;;;0.16;46.14;99093.47;1714005;82;21033;-41
2022/01/18 12:07:49;;;;;;;9.73;1.45;;;;;;;0.04;46.43;99106.52;1713597;82;21036;-40
2022/01/18 12:10:43;;;;;;;2.80;1.02;;;;;;;-0.02;47.19;99121.81;1713897;83;21049;-40
2022/01/18 12:13:11;;;;;;;1.70;1.22;;;;;;;-0.05;47.26;99121.05;1713601;82;21209;-40
2022/01/18 12:15:49;;;;;;;5.67;1.37;;;;;;;-0.10;47.28;99121.72;1713684;83;21024;-41
2022/01/18 12:18:22;;;;;;;5.28;1.07;;;;;;;-0.13;47.24;99152.38;1713780;83;21555;-40
2022/01/18 12:20:54;;;;;;;4.28;1.60;;;;;;;-0.16;47.63;99146.86;1713898;82;21009;-40
2022/01/18 12:23:42;;;;;;;8.40;1.22;;;;;;;-0.17;47.62;99139.95;1713567;83;21512;-41
2022/01/18 12:26:29;;;;;;;9.43;1.50;;;;;;;-0.14;48.31;99143.34;1713871;82;21096;-40
2022/01/18 12:29:18;;;;;;;1.90;1.22;;;;;;;-0.11;48.03;99150.77;1713146;82;20990;-40
2022/01/18 12:34:49;;;;;;;3.22;1.20;;;;;;;-0.07;47.96;99171.73;1713487;82;20978;-40
2022/01/18 12:37:19;;;;;;;3.62;1.40;;;;;;;-0.08;47.98;99174.94;1707632;82;21645;-40
2022/01/18 12:40:05;;;;;;;8.28;1.20;;;;;;;-0.03;48.50;99186.05;1713465;83;22380;-40
2022/01/18 12:45:16;;;;;;;3.30;1.30;;;;;;;0.11;48.32;99196.73;1713636;83;21000;-41
2022/01/18 12:47:59;;;;;;;4.25;1.15;;;;;;;0.10;48.13;99194.60;1713773;83;21036;-40
2022/01/18 12:50:43;;;;;;;3.95;0.90;;;;;;;0.07;47.98;99205.86;1713601;82;21013;-40
2022/01/18 12:53:18;;;;;;;5.78;2.22;;;;;;;0.04;48.69;99211.79;1713876;82;21111;-40
2022/01/18 12:55:56;;;;;;;2.85;1.20;;;;;;;-0.03;48.18;99212.16;1713399;83;21038;-40
2022/01/18 12:58:35;;;;;;;5.40;1.62;;;;;;;-0.07;48.87;99216.50;1724458;83;20993;-40
2022/01/18 13:01:09;;;;;;;6.70;1.25;;;;;;;-0.11;48.47;99221.38;1726811;82;21000;-41